Cincinnati, OH

2:21 AM EDT on March 28, 2017 (GMT -0400)
Norwood | | Change Station

Elev 620 ft 39.15 °N, 84.45 °W | Updated 20 seconds ago

Overcast
Overcast
56.9 °F
Feels Like 56.9 °F
N
0.0
Wind Variable Wind from SE

Today
High -- | Low -- °F
--% Chance of Precip.
Yesterday
High -- | Low -- °F
Precip. -- in
Pressure 29.84 in
Visibility 10.0 miles
Clouds Overcast 6500 ft
Dew Point 55 °F
Humidity 93%
Rainfall 0.00 in
Snow Depth Not available.
7:28 AM 7:57 PM
New Moon, 0% visible
METAR KLUK 280553Z AUTO 19005KT 10SM OVC065 14/13 A2984 RMK AO2 SLP103 60012 T01390133 10172 20139 56007
Pressure 29.84 in
Visibility 10.0 miles
Clouds Overcast 6500 ft
Dew Point 55 °F
Humidity 93%
Rainfall 0.00 in
Snow Depth Not available.
7:28 AM 7:57 PM
New Moon, 0% visible
METAR KLUK 280553Z AUTO 19005KT 10SM OVC065 14/13 A2984 RMK AO2 SLP103 60012 T01390133 10172 20139 56007

Get Severe Weather Alerts

Thanks for signing up!

Be on the lookout for a verification email in your inbox.

You'll start receiving the daily forecast at 8 AM.

×

10-Day Weather Forecast

Almanac

Astronomy

Mar. 28, 2017 Rise Set
Actual Time
Civil Twilight
Nautical Twilight
Astronomical Twilight
Moon
Length of Visible Light
Length of Day
Tomorrow will be .
, % of the Moon is Illuminated

Today's Extremes

State Highs State Lows

Community

WunderPhotos

Upload Photos

1,962,540 photos uploaded!

WunderBlog® & News

Nearby

Air Quality

  Air Quality AQ Index Pollutant
Not available.

Snow Depth

Station Depth Elevation

Earthquake Activity

City Distance Mag. Time & Date
Minimum magnitude displayed is 2.5.

Earthquake Activity

City Distance Mag. Time & Date
Minimum magnitude displayed is 2.5.

Coastal Water Temperatures

Place Temperature

Stations

Nearby Weather Stations

Station Location Temp. Windchill Dew Point Humidity Wind Precip. Elev Updated Type
                   

Watches & Warnings

There are currently no watches in effect.